createdAt,value
2017-08-27T00:00:26.800Z,18.1
2017-08-27T00:01:28.206Z,18.1
2017-08-27T00:02:29.592Z,18.1
2017-08-27T00:03:30.990Z,18.1
2017-08-27T00:04:32.362Z,18.1
2017-08-27T00:05:33.765Z,18.0
2017-08-27T00:06:35.141Z,18.0
2017-08-27T00:07:36.545Z,18.1
2017-08-27T00:08:37.927Z,18.0
2017-08-27T00:09:39.328Z,18.0
2017-08-27T00:10:40.707Z,18.0
2017-08-27T00:11:42.109Z,18.0
2017-08-27T00:12:43.484Z,18.1
2017-08-27T00:13:44.886Z,18.0
2017-08-27T00:14:46.255Z,18.1
2017-08-27T00:15:47.679Z,18.0
2017-08-27T00:16:49.057Z,18.0
2017-08-27T00:17:50.448Z,17.9
2017-08-27T00:18:51.828Z,18.0
2017-08-27T00:19:53.223Z,17.9
2017-08-27T00:20:54.596Z,18.0
2017-08-27T00:21:56.004Z,18.0
2017-08-27T00:22:57.381Z,17.9
2017-08-27T00:23:58.816Z,17.9
2017-08-27T00:25:00.202Z,17.9
2017-08-27T00:26:01.665Z,17.9
2017-08-27T00:27:03.042Z,17.9
2017-08-27T00:28:04.452Z,17.8
2017-08-27T00:29:05.836Z,17.9
2017-08-27T00:30:07.226Z,17.9
2017-08-27T00:31:08.604Z,17.8
2017-08-27T00:32:10.003Z,17.9
2017-08-27T00:33:11.393Z,17.8
2017-08-27T00:34:12.784Z,17.9
2017-08-27T00:35:14.161Z,17.8
2017-08-27T00:36:15.563Z,17.9
2017-08-27T00:37:16.939Z,17.8
2017-08-27T00:38:18.383Z,17.8
2017-08-27T00:39:19.759Z,17.9
2017-08-27T00:40:21.226Z,17.8
2017-08-27T00:41:22.599Z,17.8
2017-08-27T00:42:24.012Z,17.8
2017-08-27T00:43:25.403Z,17.7
2017-08-27T00:44:26.906Z,17.7
2017-08-27T00:45:28.289Z,17.8
2017-08-27T00:46:30.723Z,17.8
2017-08-27T00:47:32.099Z,17.7
2017-08-27T00:48:33.585Z,17.7
2017-08-27T00:49:34.952Z,17.6
2017-08-27T00:50:36.353Z,17.6
2017-08-27T00:51:37.731Z,17.6
2017-08-27T00:52:39.137Z,17.6
2017-08-27T00:53:40.509Z,17.6
2017-08-27T00:54:41.913Z,17.7
2017-08-27T00:55:43.290Z,17.6
2017-08-27T00:56:44.693Z,17.6
2017-08-27T00:57:46.071Z,17.6
2017-08-27T00:58:47.473Z,17.6
2017-08-27T00:59:48.848Z,17.5
2017-08-27T01:00:50.251Z,17.6
2017-08-27T01:01:51.625Z,17.6
2017-08-27T01:02:53.039Z,17.5
2017-08-27T01:03:54.408Z,17.5
2017-08-27T01:04:55.809Z,17.5
2017-08-27T01:05:57.178Z,17.5
2017-08-27T01:06:58.614Z,17.4
2017-08-27T01:07:59.964Z,17.5
2017-08-27T01:09:01.368Z,17.4
2017-08-27T01:10:02.764Z,17.4
2017-08-27T01:11:04.160Z,17.4
2017-08-27T01:12:05.524Z,17.4
2017-08-27T01:13:06.932Z,17.5
2017-08-27T01:14:08.315Z,17.4
2017-08-27T01:15:09.714Z,17.4
2017-08-27T01:16:11.088Z,17.4
2017-08-27T01:17:12.490Z,17.4
2017-08-27T01:18:13.865Z,17.3
2017-08-27T01:19:15.268Z,17.3
2017-08-27T01:20:16.636Z,17.4
2017-08-27T01:21:18.151Z,17.3
2017-08-27T01:22:19.527Z,17.3
2017-08-27T01:23:20.932Z,17.3
2017-08-27T01:24:22.329Z,17.4
2017-08-27T01:25:23.714Z,17.3
2017-08-27T01:26:25.087Z,17.3
2017-08-27T01:27:26.495Z,17.3
2017-08-27T01:28:27.868Z,17.4
2017-08-27T01:29:29.268Z,17.3
2017-08-27T01:30:30.644Z,17.4
2017-08-27T01:31:32.062Z,17.3
2017-08-27T01:32:33.429Z,17.4
2017-08-27T01:33:35.216Z,17.4
2017-08-27T01:34:36.591Z,17.4
2017-08-27T01:35:38.015Z,17.4
2017-08-27T01:36:39.394Z,17.4
2017-08-27T01:37:40.797Z,17.3
2017-08-27T01:38:42.174Z,17.4
2017-08-27T01:39:43.577Z,17.4
2017-08-27T01:40:44.949Z,17.4
2017-08-27T01:41:46.356Z,17.3
2017-08-27T01:42:47.737Z,17.3
2017-08-27T01:43:49.135Z,17.4
2017-08-27T01:44:50.516Z,17.4
2017-08-27T01:45:51.916Z,17.4
2017-08-27T01:46:53.290Z,17.4
2017-08-27T01:47:54.698Z,17.3
2017-08-27T01:48:56.070Z,17.3
2017-08-27T01:49:57.478Z,17.3
2017-08-27T01:50:58.862Z,17.3
2017-08-27T01:52:00.256Z,17.3
2017-08-27T01:53:01.629Z,17.3
2017-08-27T01:54:03.035Z,17.3
2017-08-27T01:55:04.406Z,17.3
2017-08-27T01:56:05.815Z,17.3
2017-08-27T01:57:07.189Z,17.4
2017-08-27T01:58:08.594Z,17.4
2017-08-27T01:59:09.969Z,17.3
2017-08-27T02:00:11.383Z,17.4
2017-08-27T02:01:12.763Z,17.3
2017-08-27T02:02:14.153Z,17.3
2017-08-27T02:03:15.527Z,17.3
2017-08-27T02:04:16.934Z,17.4
2017-08-27T02:05:18.313Z,17.4
2017-08-27T02:06:19.713Z,17.3
2017-08-27T02:07:21.094Z,17.4
2017-08-27T02:08:22.497Z,17.3
2017-08-27T02:09:23.860Z,17.3
2017-08-27T02:10:25.272Z,17.4
2017-08-27T02:11:26.647Z,17.3
2017-08-27T02:12:28.057Z,17.4
2017-08-27T02:13:29.434Z,17.4
2017-08-27T02:14:30.830Z,17.3
2017-08-27T02:15:32.208Z,17.4
2017-08-27T02:16:33.614Z,17.4
2017-08-27T02:17:34.992Z,17.3
2017-08-27T02:18:36.393Z,17.4
2017-08-27T02:19:37.774Z,17.3
2017-08-27T02:20:39.172Z,17.3
2017-08-27T02:21:40.546Z,17.3
2017-08-27T02:22:41.946Z,17.3
2017-08-27T02:23:43.322Z,17.3
2017-08-27T02:24:44.732Z,17.3
2017-08-27T02:25:46.112Z,17.4
2017-08-27T02:26:47.526Z,17.3
2017-08-27T02:27:48.890Z,17.4
2017-08-27T02:28:50.290Z,17.4
2017-08-27T02:29:51.664Z,17.3
2017-08-27T02:30:53.073Z,17.3
2017-08-27T02:31:54.450Z,17.4
2017-08-27T02:32:55.850Z,17.4
2017-08-27T02:33:57.222Z,17.3
2017-08-27T02:34:58.627Z,17.4
2017-08-27T02:36:00.003Z,17.4
2017-08-27T02:37:01.413Z,17.4
2017-08-27T02:38:02.784Z,17.4
2017-08-27T02:39:04.204Z,17.3
2017-08-27T02:40:05.579Z,17.3
2017-08-27T02:41:06.970Z,17.4
2017-08-27T02:42:08.351Z,17.4
2017-08-27T02:43:09.754Z,17.3
2017-08-27T02:44:11.136Z,17.3
2017-08-27T02:45:12.528Z,17.2
2017-08-27T02:46:13.910Z,17.3
2017-08-27T02:47:15.313Z,17.3
2017-08-27T02:48:16.682Z,17.2
2017-08-27T02:49:18.099Z,17.2
2017-08-27T02:50:19.479Z,17.3
2017-08-27T02:51:20.997Z,17.4
2017-08-27T02:52:22.356Z,17.3
2017-08-27T02:53:23.748Z,17.2
2017-08-27T02:54:25.125Z,17.2
2017-08-27T02:55:26.533Z,17.2
2017-08-27T02:56:27.904Z,17.2
2017-08-27T02:57:29.317Z,17.2
2017-08-27T02:58:30.695Z,17.2
2017-08-27T02:59:32.094Z,17.2
2017-08-27T03:00:33.472Z,17.3
2017-08-27T03:01:34.871Z,17.2
2017-08-27T03:02:36.242Z,17.3
2017-08-27T03:03:37.655Z,17.3
2017-08-27T03:04:39.032Z,17.3
2017-08-27T03:05:40.429Z,17.3
2017-08-27T03:06:41.804Z,17.3
2017-08-27T03:07:43.208Z,17.3
2017-08-27T03:08:44.581Z,17.3
2017-08-27T03:09:45.987Z,17.3
2017-08-27T03:10:47.361Z,17.3
2017-08-27T03:11:48.760Z,17.3
2017-08-27T03:12:50.141Z,17.3
2017-08-27T03:13:51.547Z,17.3
2017-08-27T03:14:52.919Z,17.2
2017-08-27T03:15:54.394Z,17.3
2017-08-27T03:16:55.768Z,17.3
2017-08-27T03:17:57.207Z,17.3
2017-08-27T03:18:58.585Z,17.3
2017-08-27T03:19:59.984Z,17.3
2017-08-27T03:21:01.359Z,17.3
2017-08-27T03:22:02.763Z,17.2
2017-08-27T03:23:04.164Z,17.3
2017-08-27T03:24:05.567Z,17.2
2017-08-27T03:25:06.921Z,17.3
2017-08-27T03:26:08.325Z,17.1
2017-08-27T03:27:09.701Z,17.1
2017-08-27T03:28:11.104Z,17.2
2017-08-27T03:29:12.478Z,17.2
2017-08-27T03:30:13.883Z,17.1
2017-08-27T03:31:15.261Z,17.2
2017-08-27T03:32:16.663Z,17.1
2017-08-27T03:33:18.038Z,17.1
2017-08-27T03:34:19.443Z,17.2
2017-08-27T03:35:20.819Z,17.1
2017-08-27T03:36:22.226Z,17.1
2017-08-27T03:37:23.596Z,17.1
2017-08-27T03:38:25.007Z,17.1
2017-08-27T03:39:26.394Z,17.2
2017-08-27T03:40:27.779Z,17.1
2017-08-27T03:41:29.160Z,17.2
2017-08-27T03:42:30.561Z,17.1
2017-08-27T03:43:31.935Z,17.1
2017-08-27T03:44:33.340Z,17.1
2017-08-27T03:45:34.713Z,17.1
2017-08-27T03:46:36.119Z,17.1
2017-08-27T03:47:37.496Z,17.1
2017-08-27T03:48:38.899Z,17.1
2017-08-27T03:49:40.281Z,17.1
2017-08-27T03:50:41.680Z,17.1
2017-08-27T03:51:43.056Z,17.1
2017-08-27T03:52:44.458Z,17.1
2017-08-27T03:53:45.836Z,17.0
2017-08-27T03:54:47.238Z,17.1
2017-08-27T03:55:48.615Z,17.1
2017-08-27T03:56:50.026Z,17.0
2017-08-27T03:57:51.396Z,17.1
2017-08-27T03:58:52.803Z,17.1
2017-08-27T03:59:54.175Z,17.0
2017-08-27T04:00:55.578Z,17.0
2017-08-27T04:01:56.955Z,17.0
2017-08-27T04:02:58.364Z,17.1
2017-08-27T04:03:59.749Z,16.9
2017-08-27T04:05:01.139Z,16.9
2017-08-27T04:06:02.516Z,16.9
2017-08-27T04:07:03.921Z,16.9
2017-08-27T04:08:05.293Z,16.8
2017-08-27T04:09:06.696Z,16.8
2017-08-27T04:10:08.073Z,16.8
2017-08-27T04:11:09.473Z,16.8
2017-08-27T04:12:10.853Z,16.8
2017-08-27T04:13:12.258Z,16.8
2017-08-27T04:14:13.631Z,16.8
2017-08-27T04:15:15.036Z,16.8
2017-08-27T04:16:16.413Z,16.7
2017-08-27T04:17:17.817Z,16.7
2017-08-27T04:18:19.196Z,16.7
2017-08-27T04:19:20.597Z,16.6
2017-08-27T04:20:21.984Z,16.6
2017-08-27T04:21:23.386Z,16.6
2017-08-27T04:22:24.754Z,16.6
2017-08-27T04:23:26.170Z,16.5
2017-08-27T04:24:27.538Z,16.5
2017-08-27T04:25:28.936Z,16.5
2017-08-27T04:26:30.313Z,16.5
2017-08-27T04:27:31.717Z,16.5
2017-08-27T04:28:33.093Z,16.4
2017-08-27T04:29:34.495Z,16.4
2017-08-27T04:30:35.872Z,16.5
2017-08-27T04:31:37.281Z,16.5
2017-08-27T04:32:38.654Z,16.4
2017-08-27T04:33:40.055Z,16.3
2017-08-27T04:34:41.820Z,16.4
2017-08-27T04:35:43.243Z,16.3
2017-08-27T04:36:44.620Z,16.3
2017-08-27T04:37:46.052Z,16.2
2017-08-27T04:38:47.406Z,16.2
2017-08-27T04:39:48.804Z,16.3
2017-08-27T04:40:50.183Z,16.2
2017-08-27T04:41:51.589Z,16.3
2017-08-27T04:42:52.963Z,16.2
2017-08-27T04:43:54.364Z,16.2
2017-08-27T04:44:55.742Z,16.1
2017-08-27T04:45:57.147Z,16.1
2017-08-27T04:46:58.521Z,16.1
2017-08-27T04:47:59.942Z,16.0
2017-08-27T04:49:01.329Z,16.0
2017-08-27T04:50:02.806Z,15.9
2017-08-27T04:51:04.182Z,15.9
2017-08-27T04:52:05.586Z,15.9
2017-08-27T04:53:06.963Z,15.9
2017-08-27T04:54:08.376Z,16.0
2017-08-27T04:55:09.747Z,16.0
2017-08-27T04:56:11.145Z,15.9
2017-08-27T04:57:12.520Z,15.9
2017-08-27T04:58:13.936Z,15.9
2017-08-27T04:59:15.322Z,15.8
2017-08-27T05:00:16.808Z,15.8
2017-08-27T05:01:18.205Z,15.8
2017-08-27T05:02:19.689Z,15.9
2017-08-27T05:03:21.076Z,15.8
2017-08-27T05:04:22.470Z,15.9
2017-08-27T05:05:23.877Z,15.9
2017-08-27T05:06:25.357Z,15.9
2017-08-27T05:07:26.727Z,15.9
2017-08-27T05:08:28.139Z,15.8
2017-08-27T05:09:29.538Z,15.9
2017-08-27T05:10:31.014Z,15.8
2017-08-27T05:11:32.390Z,15.8
2017-08-27T05:12:33.796Z,15.8
2017-08-27T05:13:35.171Z,15.8
2017-08-27T05:14:36.575Z,15.8
2017-08-27T05:15:37.948Z,15.7
2017-08-27T05:16:39.357Z,15.7
2017-08-27T05:17:40.737Z,15.8
2017-08-27T05:18:42.131Z,15.7
2017-08-27T05:19:43.509Z,15.8
2017-08-27T05:20:44.912Z,15.7
2017-08-27T05:21:46.285Z,15.7
2017-08-27T05:22:47.690Z,15.7
2017-08-27T05:23:49.069Z,15.8
2017-08-27T05:24:50.469Z,15.7
2017-08-27T05:25:51.865Z,15.7
2017-08-27T05:26:53.354Z,15.7
2017-08-27T05:27:54.731Z,15.8
2017-08-27T05:28:56.131Z,15.8
2017-08-27T05:29:57.506Z,15.8
2017-08-27T05:30:58.912Z,15.8
2017-08-27T05:32:00.292Z,15.8
2017-08-27T05:33:01.694Z,15.9
2017-08-27T05:34:03.071Z,15.8
2017-08-27T05:35:04.480Z,15.9
2017-08-27T05:36:05.857Z,15.9
2017-08-27T05:37:07.250Z,15.9
2017-08-27T05:38:08.631Z,16.0
2017-08-27T05:39:10.032Z,16.0
2017-08-27T05:40:11.409Z,16.0
2017-08-27T05:41:12.812Z,16.0
2017-08-27T05:42:14.574Z,16.1
2017-08-27T05:43:15.998Z,16.1
2017-08-27T05:44:17.377Z,16.2
2017-08-27T05:45:18.780Z,16.2
2017-08-27T05:46:20.156Z,16.3
2017-08-27T05:47:21.560Z,16.3
2017-08-27T05:48:22.937Z,16.3
2017-08-27T05:49:24.339Z,16.4
2017-08-27T05:50:25.715Z,16.4
2017-08-27T05:51:28.141Z,16.5
2017-08-27T05:52:29.541Z,16.5
2017-08-27T05:53:31.025Z,16.7
2017-08-27T05:54:32.405Z,16.7
2017-08-27T05:55:33.805Z,16.7
2017-08-27T05:56:35.184Z,16.8
2017-08-27T05:57:36.584Z,16.9
2017-08-27T05:58:37.962Z,17.0
2017-08-27T05:59:39.355Z,17.0
2017-08-27T06:00:40.749Z,17.1
2017-08-27T06:01:42.145Z,17.1
2017-08-27T06:02:43.525Z,17.3
2017-08-27T06:03:44.927Z,17.4
2017-08-27T06:04:46.302Z,17.5
2017-08-27T06:05:47.717Z,17.5
2017-08-27T06:06:49.110Z,17.6
2017-08-27T06:07:50.584Z,17.6
2017-08-27T06:08:51.957Z,17.6
2017-08-27T06:09:53.367Z,17.7
2017-08-27T06:10:54.756Z,17.7
2017-08-27T06:11:56.144Z,17.8
2017-08-27T06:12:57.526Z,17.8
2017-08-27T06:13:58.924Z,17.8
2017-08-27T06:15:00.317Z,17.9
2017-08-27T06:16:01.805Z,18.0
2017-08-27T06:17:03.194Z,18.1
2017-08-27T06:18:04.688Z,18.0
2017-08-27T06:19:06.067Z,18.0
2017-08-27T06:20:07.466Z,18.1
2017-08-27T06:21:08.857Z,18.1
2017-08-27T06:22:10.247Z,18.2
2017-08-27T06:23:11.631Z,18.2
2017-08-27T06:24:13.025Z,18.3
2017-08-27T06:25:14.418Z,18.4
2017-08-27T06:26:16.226Z,18.5
2017-08-27T06:27:17.610Z,18.5
2017-08-27T06:28:19.097Z,18.6
2017-08-27T06:29:20.476Z,18.7
2017-08-27T06:30:21.877Z,18.8
2017-08-27T06:31:23.271Z,19.0
2017-08-27T06:32:24.759Z,19.0
2017-08-27T06:33:26.529Z,19.1
2017-08-27T06:34:27.950Z,19.1
2017-08-27T06:35:29.355Z,19.1
2017-08-27T06:36:30.830Z,19.2
2017-08-27T06:37:32.212Z,19.3
2017-08-27T06:38:33.611Z,19.3
2017-08-27T06:39:34.989Z,19.3
2017-08-27T06:40:36.418Z,19.4
2017-08-27T06:41:37.797Z,19.4
2017-08-27T06:42:39.274Z,19.6
2017-08-27T06:43:40.660Z,19.5
2017-08-27T06:44:42.565Z,19.6
2017-08-27T06:45:43.950Z,19.7
2017-08-27T06:46:45.460Z,19.8
2017-08-27T06:47:46.845Z,19.8
2017-08-27T06:48:48.349Z,19.9
2017-08-27T06:49:49.720Z,20.0
2017-08-27T06:50:51.210Z,19.9
2017-08-27T06:51:52.595Z,20.0
2017-08-27T06:52:54.092Z,20.0
2017-08-27T06:53:55.480Z,19.9
2017-08-27T06:54:56.882Z,20.0
2017-08-27T06:55:58.258Z,20.0
2017-08-27T06:56:59.755Z,20.2
2017-08-27T06:58:01.140Z,20.3
2017-08-27T06:59:02.639Z,20.4
2017-08-27T07:00:04.019Z,20.3
2017-08-27T07:01:05.825Z,20.4
2017-08-27T07:02:07.213Z,20.5
2017-08-27T07:03:08.724Z,20.5
2017-08-27T07:04:10.193Z,20.4
2017-08-27T07:05:11.689Z,20.4
2017-08-27T07:06:13.075Z,20.5
2017-08-27T07:07:14.584Z,20.5
2017-08-27T07:08:15.957Z,20.5
2017-08-27T07:09:17.342Z,20.7
2017-08-27T07:10:18.725Z,20.6
2017-08-27T07:11:20.113Z,20.8
2017-08-27T07:12:21.503Z,20.8
2017-08-27T07:13:22.883Z,20.8
2017-08-27T07:14:24.265Z,21.0
2017-08-27T07:15:25.692Z,21.0
2017-08-27T07:16:27.089Z,21.0
2017-08-27T07:17:28.574Z,21.0
2017-08-27T07:18:29.958Z,20.9
2017-08-27T07:19:31.460Z,20.8
2017-08-27T07:20:32.877Z,20.8
2017-08-27T07:21:34.340Z,20.8
2017-08-27T07:22:35.728Z,21.0
2017-08-27T07:23:37.221Z,20.8
2017-08-27T07:24:38.607Z,20.8
2017-08-27T07:25:40.113Z,20.8
2017-08-27T07:26:41.501Z,21.0
2017-08-27T07:27:42.992Z,21.0
2017-08-27T07:28:44.372Z,21.1
2017-08-27T07:29:45.900Z,21.2
2017-08-27T07:30:47.286Z,21.3
2017-08-27T07:31:48.747Z,21.2
2017-08-27T07:32:50.440Z,21.2
2017-08-27T07:33:51.834Z,21.1
2017-08-27T07:34:53.216Z,21.1
2017-08-27T07:35:54.615Z,21.1
2017-08-27T07:36:55.998Z,21.0
2017-08-27T07:37:57.500Z,21.0
2017-08-27T07:38:58.882Z,21.2
2017-08-27T07:40:00.481Z,21.2
2017-08-27T07:41:01.859Z,21.3
2017-08-27T07:42:03.276Z,21.3
2017-08-27T07:43:04.666Z,21.4
2017-08-27T07:44:06.143Z,21.2
2017-08-27T07:45:07.638Z,21.4
2017-08-27T07:46:09.125Z,21.5
2017-08-27T07:47:10.513Z,21.6
2017-08-27T07:48:12.005Z,21.7
2017-08-27T07:49:13.396Z,21.8
2017-08-27T07:50:14.892Z,21.7
2017-08-27T07:51:16.274Z,21.8
2017-08-27T07:52:17.673Z,21.9
2017-08-27T07:53:19.062Z,22.0
2017-08-27T07:54:20.570Z,22.2
2017-08-27T07:55:21.967Z,22.1
2017-08-27T07:56:23.357Z,22.2
2017-08-27T07:57:24.750Z,22.3
2017-08-27T07:58:26.215Z,22.3
2017-08-27T07:59:27.610Z,22.4
2017-08-27T08:00:29.010Z,22.5
2017-08-27T08:01:30.581Z,22.4
2017-08-27T08:02:31.978Z,22.4
2017-08-27T08:03:33.361Z,22.4
2017-08-27T08:04:34.874Z,22.5
2017-08-27T08:05:36.270Z,22.6
2017-08-27T08:06:37.743Z,22.6
2017-08-27T08:07:39.132Z,22.6
2017-08-27T08:08:40.623Z,22.6
2017-08-27T08:09:42.004Z,22.8
2017-08-27T08:10:43.404Z,22.9
2017-08-27T08:11:44.788Z,23.0
2017-08-27T08:12:46.339Z,23.2
2017-08-27T08:13:47.716Z,23.1
2017-08-27T08:14:49.168Z,23.2
2017-08-27T08:15:50.561Z,23.2
2017-08-27T08:16:52.048Z,23.2
2017-08-27T08:17:53.437Z,23.3
2017-08-27T08:18:54.835Z,23.4
2017-08-27T08:19:56.224Z,23.4
2017-08-27T08:20:57.605Z,23.4
2017-08-27T08:21:58.992Z,23.4
2017-08-27T08:23:00.384Z,23.6
2017-08-27T08:24:01.768Z,23.6
2017-08-27T08:25:03.162Z,23.5
2017-08-27T08:26:04.565Z,23.6
2017-08-27T08:27:05.960Z,23.7
2017-08-27T08:28:07.342Z,23.7
2017-08-27T08:29:08.740Z,23.6
2017-08-27T08:30:10.119Z,23.8
2017-08-27T08:31:11.527Z,23.9
2017-08-27T08:32:12.908Z,23.9
2017-08-27T08:33:14.309Z,24.0
2017-08-27T08:34:15.695Z,24.1
2017-08-27T08:35:17.089Z,24.2
2017-08-27T08:36:18.465Z,24.2
2017-08-27T08:37:19.866Z,24.2
2017-08-27T08:38:21.253Z,24.3
2017-08-27T08:39:22.645Z,24.3
2017-08-27T08:40:24.081Z,24.1
2017-08-27T08:41:25.479Z,24.0
2017-08-27T08:42:26.865Z,23.8
2017-08-27T08:43:28.270Z,23.9
2017-08-27T08:44:29.654Z,24.0
2017-08-27T08:45:31.047Z,24.2
2017-08-27T08:46:32.433Z,24.2
2017-08-27T08:47:34.296Z,24.0
2017-08-27T08:48:35.707Z,24.0
2017-08-27T08:49:37.099Z,24.2
2017-08-27T08:50:38.481Z,24.1
2017-08-27T08:51:39.875Z,24.2
2017-08-27T08:52:41.260Z,24.2
2017-08-27T08:53:42.653Z,24.5
2017-08-27T08:54:44.048Z,24.5
2017-08-27T08:55:45.440Z,24.4
2017-08-27T08:56:46.828Z,24.3
2017-08-27T08:57:48.222Z,24.1
2017-08-27T08:58:49.647Z,24.1
2017-08-27T08:59:51.005Z,24.2
2017-08-27T09:00:52.389Z,24.2
2017-08-27T09:01:53.826Z,24.2
2017-08-27T09:02:55.211Z,24.2
2017-08-27T09:03:56.604Z,24.0
2017-08-27T09:04:57.994Z,24.0
2017-08-27T09:05:59.382Z,23.9
2017-08-27T09:07:00.770Z,23.9
2017-08-27T09:08:02.166Z,24.0
2017-08-27T09:09:03.554Z,23.8
2017-08-27T09:10:04.956Z,23.7
2017-08-27T09:11:06.335Z,23.6
2017-08-27T09:12:07.729Z,23.8
2017-08-27T09:13:09.113Z,24.0
2017-08-27T09:14:10.507Z,24.2
2017-08-27T09:15:11.895Z,24.4
2017-08-27T09:16:13.288Z,24.5
2017-08-27T09:17:14.676Z,24.5
2017-08-27T09:18:16.066Z,24.6
2017-08-27T09:19:17.513Z,24.8
2017-08-27T09:20:18.896Z,24.7
2017-08-27T09:21:20.294Z,24.5
2017-08-27T09:22:21.688Z,24.5
2017-08-27T09:23:23.075Z,24.6
2017-08-27T09:24:24.475Z,24.5
2017-08-27T09:25:25.856Z,24.4
2017-08-27T09:26:27.256Z,24.5
2017-08-27T09:27:28.643Z,24.5
2017-08-27T09:28:30.035Z,24.6
2017-08-27T09:29:31.422Z,24.8
2017-08-27T09:30:32.814Z,25.1
2017-08-27T09:31:34.193Z,25.0
2017-08-27T09:32:35.598Z,25.0
2017-08-27T09:33:36.985Z,24.8
2017-08-27T09:34:38.376Z,24.7
2017-08-27T09:35:39.763Z,24.6
2017-08-27T09:36:41.183Z,24.7
2017-08-27T09:37:42.553Z,24.7
2017-08-27T09:38:43.948Z,24.8
2017-08-27T09:39:45.337Z,24.6
2017-08-27T09:40:46.728Z,24.6
2017-08-27T09:41:48.126Z,24.8
2017-08-27T09:42:49.539Z,25.0
2017-08-27T09:43:50.924Z,25.0
2017-08-27T09:44:52.319Z,25.0
2017-08-27T09:45:53.706Z,24.9
2017-08-27T09:46:55.097Z,24.9
2017-08-27T09:47:56.491Z,24.8
2017-08-27T09:48:57.884Z,24.9
2017-08-27T09:49:59.270Z,25.0
2017-08-27T09:51:00.664Z,25.1
2017-08-27T09:52:02.050Z,25.0
2017-08-27T09:53:03.445Z,25.0
2017-08-27T09:54:04.835Z,24.9
2017-08-27T09:55:06.226Z,25.1
2017-08-27T09:56:07.613Z,25.3
2017-08-27T09:57:09.005Z,25.2
2017-08-27T09:58:10.399Z,25.4
2017-08-27T09:59:11.834Z,25.6
2017-08-27T10:00:13.592Z,25.8
2017-08-27T10:01:15.009Z,25.9
2017-08-27T10:02:16.415Z,25.9
2017-08-27T10:03:17.835Z,25.8
2017-08-27T10:04:19.366Z,25.8
2017-08-27T10:05:20.736Z,26.0
2017-08-27T10:06:22.141Z,26.2
2017-08-27T10:07:23.590Z,26.5
2017-08-27T10:08:24.976Z,26.5
2017-08-27T10:09:26.386Z,26.6
2017-08-27T10:10:27.789Z,26.5
2017-08-27T10:11:29.188Z,26.4
2017-08-27T10:12:30.592Z,26.3
2017-08-27T10:13:31.997Z,26.2
2017-08-27T10:14:33.378Z,26.4
2017-08-27T10:15:34.776Z,26.2
2017-08-27T10:16:36.469Z,26.3
2017-08-27T10:17:37.822Z,26.5
2017-08-27T10:18:39.286Z,26.7
2017-08-27T10:19:40.715Z,26.9
2017-08-27T10:20:42.117Z,26.8
2017-08-27T10:21:43.550Z,27.1
2017-08-27T10:22:44.936Z,27.1
2017-08-27T10:23:46.343Z,27.0
2017-08-27T10:24:47.739Z,26.8
2017-08-27T10:25:49.230Z,26.9
2017-08-27T10:26:50.675Z,27.1
2017-08-27T10:27:52.070Z,27.3
2017-08-27T10:28:53.744Z,27.4
2017-08-27T10:29:55.142Z,27.2
2017-08-27T10:30:56.535Z,27.0
2017-08-27T10:31:57.926Z,27.0
2017-08-27T10:32:59.319Z,27.1
2017-08-27T10:34:00.714Z,27.3
2017-08-27T10:35:02.128Z,27.3
2017-08-27T10:36:03.522Z,27.3
2017-08-27T10:37:04.923Z,27.2
2017-08-27T10:38:06.313Z,27.3
2017-08-27T10:39:07.704Z,27.3
2017-08-27T10:40:09.091Z,27.4
2017-08-27T10:41:10.491Z,27.4
2017-08-27T10:42:11.895Z,27.3
2017-08-27T10:43:13.282Z,27.5
2017-08-27T10:44:14.675Z,27.7
2017-08-27T10:45:16.062Z,27.9
2017-08-27T10:46:17.455Z,28.0
2017-08-27T10:47:18.846Z,28.1
2017-08-27T10:48:20.239Z,28.1
2017-08-27T10:49:21.629Z,28.1
2017-08-27T10:50:23.027Z,28.3
2017-08-27T10:51:24.430Z,28.5
2017-08-27T10:52:25.826Z,28.5
2017-08-27T10:53:27.215Z,28.5
2017-08-27T10:54:28.618Z,28.5
2017-08-27T10:55:30.006Z,28.4
2017-08-27T10:56:31.439Z,28.3
2017-08-27T10:57:32.878Z,28.0
2017-08-27T10:58:34.265Z,28.2
2017-08-27T10:59:35.661Z,28.4
2017-08-27T11:00:37.051Z,28.6
2017-08-27T11:01:38.530Z,28.7
2017-08-27T11:02:39.989Z,28.4
2017-08-27T11:03:41.385Z,27.9
2017-08-27T11:04:42.808Z,27.7
2017-08-27T11:05:44.166Z,27.8
2017-08-27T11:06:45.572Z,27.7
2017-08-27T11:07:46.971Z,27.8
2017-08-27T11:08:48.369Z,27.9
2017-08-27T11:09:49.759Z,28.0
2017-08-27T11:10:51.154Z,28.0
2017-08-27T11:11:52.552Z,28.1
2017-08-27T11:12:53.940Z,28.1
2017-08-27T11:13:55.332Z,27.9
2017-08-27T11:14:56.729Z,28.0
2017-08-27T11:15:58.202Z,28.0
2017-08-27T11:16:59.593Z,28.4
2017-08-27T11:18:00.984Z,28.5
2017-08-27T11:19:02.379Z,28.4
2017-08-27T11:20:03.773Z,28.4
2017-08-27T11:21:05.166Z,28.5
2017-08-27T11:22:06.558Z,28.8
2017-08-27T11:23:07.964Z,29.1
2017-08-27T11:24:09.368Z,29.3
2017-08-27T11:25:10.767Z,29.0
2017-08-27T11:26:12.328Z,28.8
2017-08-27T11:27:13.722Z,28.8
2017-08-27T11:28:15.108Z,28.8
2017-08-27T11:29:16.501Z,28.8
2017-08-27T11:30:17.903Z,28.5
2017-08-27T11:31:19.302Z,28.5
2017-08-27T11:32:20.702Z,28.6
2017-08-27T11:33:22.096Z,28.6
2017-08-27T11:34:23.485Z,28.2
2017-08-27T11:35:24.884Z,28.4
2017-08-27T11:36:26.272Z,28.3
2017-08-27T11:37:27.688Z,28.4
2017-08-27T11:38:29.083Z,28.6
2017-08-27T11:39:30.470Z,28.5
2017-08-27T11:40:31.860Z,28.5
2017-08-27T11:41:33.284Z,28.9
2017-08-27T11:42:34.675Z,29.2
2017-08-27T11:43:36.068Z,29.1
2017-08-27T11:44:37.473Z,28.8
2017-08-27T11:45:38.898Z,29.0
2017-08-27T11:46:40.295Z,29.1
2017-08-27T11:47:41.677Z,29.3
2017-08-27T11:48:43.098Z,29.6
2017-08-27T11:49:44.472Z,29.9
2017-08-27T11:50:45.860Z,30.1
2017-08-27T11:51:47.261Z,29.9
2017-08-27T11:52:48.652Z,30.0
2017-08-27T11:53:50.049Z,30.0
2017-08-27T11:54:51.490Z,30.1
2017-08-27T11:55:52.999Z,30.2
2017-08-27T11:56:54.391Z,29.7
2017-08-27T11:57:55.790Z,29.3
2017-08-27T11:58:57.358Z,29.3
2017-08-27T11:59:58.792Z,29.0
2017-08-27T12:01:00.199Z,28.9
2017-08-27T12:02:01.630Z,29.2
2017-08-27T12:03:03.038Z,29.4
2017-08-27T12:04:04.432Z,29.4
2017-08-27T12:05:05.823Z,29.6
2017-08-27T12:06:07.251Z,29.4
2017-08-27T12:07:08.653Z,29.6
2017-08-27T12:08:10.060Z,29.8
2017-08-27T12:09:11.464Z,30.1
2017-08-27T12:10:12.991Z,30.2
2017-08-27T12:11:14.610Z,30.2
2017-08-27T12:12:16.288Z,30.4
2017-08-27T12:13:17.764Z,30.6
2017-08-27T12:14:20.009Z,30.6
2017-08-27T12:15:21.420Z,30.8
2017-08-27T12:16:22.866Z,30.5
2017-08-27T12:17:24.663Z,30.3
2017-08-27T12:18:26.203Z,30.3
2017-08-27T12:19:27.582Z,30.4
2017-08-27T12:20:28.978Z,30.5
2017-08-27T12:21:30.367Z,30.6
2017-08-27T12:22:31.765Z,30.6
2017-08-27T12:23:33.346Z,30.3
2017-08-27T12:24:34.802Z,30.6
2017-08-27T12:25:36.578Z,30.7
2017-08-27T12:26:38.019Z,30.8
2017-08-27T12:27:39.408Z,31.0
2017-08-27T12:28:40.807Z,30.5
2017-08-27T12:29:42.255Z,30.6
2017-08-27T12:30:43.670Z,30.8
2017-08-27T12:31:45.059Z,30.9
2017-08-27T12:32:46.847Z,31.0
2017-08-27T12:33:48.237Z,30.7
2017-08-27T12:34:49.647Z,30.5
2017-08-27T12:35:51.035Z,30.5
2017-08-27T12:36:52.429Z,30.7
2017-08-27T12:37:53.839Z,30.9
2017-08-27T12:38:56.234Z,31.2
2017-08-27T12:39:57.646Z,31.3
2017-08-27T12:40:59.039Z,30.9
2017-08-27T12:42:00.429Z,30.4
2017-08-27T12:43:01.838Z,30.3
2017-08-27T12:44:03.241Z,30.5
2017-08-27T12:45:04.689Z,30.5
2017-08-27T12:46:06.079Z,30.7
2017-08-27T12:47:07.473Z,30.5
2017-08-27T12:48:09.011Z,30.3
2017-08-27T12:49:10.424Z,30.0
2017-08-27T12:50:11.826Z,29.8
2017-08-27T12:51:13.223Z,29.4
2017-08-27T12:52:14.617Z,29.2
2017-08-27T12:53:16.029Z,29.4
2017-08-27T12:54:17.407Z,29.6
2017-08-27T12:55:19.007Z,29.7
2017-08-27T12:56:20.406Z,30.0
2017-08-27T12:57:21.805Z,30.5
2017-08-27T12:58:23.202Z,30.8
2017-08-27T12:59:24.597Z,30.9
2017-08-27T13:00:25.985Z,30.5
2017-08-27T13:01:27.385Z,30.2
2017-08-27T13:02:28.802Z,30.2
2017-08-27T13:03:30.222Z,30.3
2017-08-27T13:04:31.616Z,30.6
2017-08-27T13:05:33.018Z,30.8
2017-08-27T13:06:34.404Z,30.9
2017-08-27T13:07:35.797Z,31.3
2017-08-27T13:08:37.208Z,31.4
2017-08-27T13:09:38.605Z,31.7
2017-08-27T13:10:39.994Z,32.0
2017-08-27T13:11:41.753Z,32.3
2017-08-27T13:12:43.145Z,32.2
2017-08-27T13:13:44.538Z,32.2
2017-08-27T13:14:45.929Z,32.1
2017-08-27T13:15:47.322Z,32.2
2017-08-27T13:16:48.742Z,32.3
2017-08-27T13:17:50.152Z,32.1
2017-08-27T13:18:51.540Z,32.2
2017-08-27T13:19:52.936Z,32.2
2017-08-27T13:20:54.334Z,32.3
2017-08-27T13:21:55.742Z,32.6
2017-08-27T13:22:57.134Z,32.8
2017-08-27T13:23:58.532Z,32.6
2017-08-27T13:24:59.925Z,32.0
2017-08-27T13:26:01.322Z,31.2
2017-08-27T13:27:02.710Z,31.1
2017-08-27T13:28:04.110Z,31.0
2017-08-27T13:29:05.501Z,31.2
2017-08-27T13:30:06.894Z,30.7
2017-08-27T13:31:08.287Z,30.8
2017-08-27T13:32:09.678Z,31.2
2017-08-27T13:33:11.071Z,31.4
2017-08-27T13:34:12.466Z,31.5
2017-08-27T13:35:13.868Z,31.8
2017-08-27T13:36:15.268Z,32.1
2017-08-27T13:37:16.659Z,32.1